Time;durP1;ratioP1;P1;durP2;ratioP2;P2;SDS_P1;SDS_P2;PMS_P1;PMS_P2;Temp;Humidity;BMP_temperature;BMP_pressure;BME280_temperature;BME280_humidity;BME280_pressure;Samples;Min_cycle;Max_cycle;Signal;HPM_P1;HPM_P2
2023/04/08 00:02:12;;;;;;;12.90;11.10;;;;;;;9.91;64.35;99790.55;106760;1269;73078;-37
2023/04/08 00:04:42;;;;;;;12.50;11.20;;;;;;;9.92;64.24;99790.95;106868;1266;69134;-37
2023/04/08 00:07:12;;;;;;;13.80;12.00;;;;;;;9.89;64.19;99786.41;106720;1266;210511;-39
2023/04/08 00:09:41;;;;;;;12.50;11.10;;;;;;;9.86;64.37;99789.19;107313;1257;61461;-37
2023/04/08 00:12:10;;;;;;;13.80;11.40;;;;;;;9.83;64.48;99789.86;107340;1260;61515;-37
2023/04/08 00:14:40;;;;;;;14.40;11.60;;;;;;;9.82;64.43;99788.21;107334;1255;73461;-37
2023/04/08 00:17:09;;;;;;;11.10;9.60;;;;;;;9.82;64.53;99788.15;107308;1260;68978;-37
2023/04/08 00:19:37;;;;;;;11.60;9.50;;;;;;;9.88;64.48;99782.67;107320;1257;73959;-37
2023/04/08 00:22:08;;;;;;;12.10;10.00;;;;;;;9.93;64.38;99781.02;107245;1258;61281;-37
2023/04/08 00:24:39;;;;;;;14.60;10.40;;;;;;;9.93;64.38;99777.70;107233;1255;61525;-37
2023/04/08 00:27:12;;;;;;;12.80;11.00;;;;;;;9.94;64.55;99771.67;107223;1258;74223;-37
2023/04/08 00:29:41;;;;;;;13.40;11.60;;;;;;;9.95;64.32;99770.93;107282;1257;68149;-37
2023/04/08 00:32:10;;;;;;;13.50;12.00;;;;;;;9.95;64.41;99769.63;107340;1260;73537;-37
2023/04/08 00:34:39;;;;;;;12.60;11.00;;;;;;;9.95;64.33;99767.55;107355;1258;59946;-38
2023/04/08 00:37:08;;;;;;;12.50;11.10;;;;;;;9.95;64.23;99771.33;107326;1257;61297;-38
2023/04/08 00:39:36;;;;;;;15.30;12.20;;;;;;;9.93;64.17;99775.38;107335;1256;74274;-38
2023/04/08 00:42:05;;;;;;;14.00;11.80;;;;;;;9.90;64.28;99773.51;106510;1257;1002966;-38
2023/04/08 00:44:34;;;;;;;13.90;12.00;;;;;;;9.88;64.52;99772.60;107295;1258;73342;-38
2023/04/08 00:47:03;;;;;;;12.20;10.90;;;;;;;9.88;64.47;99769.73;107268;1257;60442;-38
2023/04/08 00:49:31;;;;;;;14.00;10.70;;;;;;;9.87;64.40;99768.02;107369;1260;61598;-38
2023/04/08 00:52:00;;;;;;;11.80;10.40;;;;;;;9.91;64.42;99769.36;107334;1257;74322;-38
2023/04/08 00:54:30;;;;;;;12.90;11.40;;;;;;;9.97;64.32;99776.27;107336;1259;68953;-38
2023/04/08 00:57:00;;;;;;;13.20;11.00;;;;;;;9.96;64.25;99778.33;107276;1258;73707;-38
2023/04/08 00:59:28;;;;;;;12.80;11.00;;;;;;;9.96;64.19;99778.47;107197;1257;60103;-38
2023/04/08 01:02:22;;;;;;;13.20;11.50;;;;;;;9.92;64.10;99782.06;107268;1257;60618;-38
2023/04/08 01:05:06;;;;;;;13.40;11.10;;;;;;;9.79;64.26;99784.66;107285;1260;74448;-38
2023/04/08 01:07:36;;;;;;;13.70;11.70;;;;;;;9.73;64.70;99785.16;107337;1255;69136;-38
2023/04/08 01:10:12;;;;;;;15.40;12.20;;;;;;;9.69;64.78;99787.45;107309;1258;73734;-38
2023/04/08 01:12:43;;;;;;;13.40;11.70;;;;;;;9.62;65.07;99789.63;107307;1257;60034;-38
2023/04/08 01:15:12;;;;;;;14.90;12.60;;;;;;;9.58;65.45;99791.70;107316;1260;60887;-38
2023/04/08 01:17:40;;;;;;;13.20;11.00;;;;;;;9.58;65.59;99791.61;107343;1257;74274;-38
2023/04/08 01:20:09;;;;;;;14.40;10.50;;;;;;;9.66;65.70;99790.91;107251;1258;69151;-38
2023/04/08 01:23:00;;;;;;;14.00;11.30;;;;;;;9.73;65.77;99792.38;107144;1258;73823;-38
2023/04/08 01:25:31;;;;;;;13.80;12.00;;;;;;;9.78;66.00;99795.90;107272;1257;60373;-38
2023/04/08 01:28:00;;;;;;;15.10;12.20;;;;;;;9.79;66.28;99795.41;107305;1260;60339;-38
2023/04/08 01:30:30;;;;;;;;;;;;;;;9.83;66.36;99788.17;107147;1257;74906;-38
2023/04/08 01:32:58;;;;;;;13.10;11.70;;;;;;;9.81;66.75;99794.45;107326;1260;69151;-38
2023/04/08 01:35:27;;;;;;;13.70;12.30;;;;;;;9.77;67.09;99792.80;107145;1257;73680;-38
2023/04/08 01:37:58;;;;;;;14.20;12.20;;;;;;;9.77;67.18;99793.65;107326;1257;60387;-38
2023/04/08 01:40:26;;;;;;;13.60;12.10;;;;;;;9.76;67.34;99794.92;107256;1257;61382;-38
2023/04/08 01:42:56;;;;;;;13.90;11.50;;;;;;;9.73;67.65;99795.91;107265;1260;74104;-38
2023/04/08 01:45:24;;;;;;;13.20;11.00;;;;;;;9.77;67.73;99794.03;107196;1257;69114;-38
2023/04/08 01:47:53;;;;;;;12.80;11.50;;;;;;;9.84;67.93;99797.63;107283;1257;73981;-38
2023/04/08 01:50:22;;;;;;;13.40;11.80;;;;;;;9.87;67.92;99799.82;107311;1257;61624;-38
2023/04/08 01:52:54;;;;;;;13.30;11.80;;;;;;;9.87;67.93;99799.64;107093;1257;61650;-38
2023/04/08 01:55:22;;;;;;;12.60;11.30;;;;;;;9.86;67.97;99801.95;107206;1257;74048;-38
2023/04/08 01:57:51;;;;;;;13.60;11.40;;;;;;;9.86;67.98;99799.48;107073;1263;69128;-38
2023/04/08 02:00:26;;;;;;;13.50;12.00;;;;;;;9.85;67.93;99799.05;107312;1258;72639;-38
2023/04/08 02:02:55;;;;;;;14.50;12.10;;;;;;;9.83;67.78;99799.84;107350;1257;60030;-38
2023/04/08 02:05:24;;;;;;;13.60;12.10;;;;;;;9.78;67.93;99796.99;107112;1258;60010;-38
2023/04/08 02:07:52;;;;;;;14.00;11.00;;;;;;;9.75;68.06;99799.23;107319;1260;74229;-38
2023/04/08 02:10:21;;;;;;;12.40;10.30;;;;;;;9.76;68.04;99796.41;107350;1257;68936;-38
2023/04/08 02:12:50;;;;;;;13.00;11.60;;;;;;;9.79;68.25;99795.95;107292;1258;73554;-38
2023/04/08 02:15:19;;;;;;;12.80;11.50;;;;;;;9.82;68.36;99795.55;107110;1257;61600;-38
2023/04/08 02:17:59;;;;;;;16.00;11.60;;;;;;;9.84;68.27;99790.23;107274;1257;60019;-38
2023/04/08 02:20:40;;;;;;;13.60;12.20;;;;;;;9.85;68.27;99792.18;107241;1257;74322;-38
2023/04/08 02:23:18;;;;;;;13.00;11.60;;;;;;;9.82;68.34;99791.54;107236;1257;68048;-38
2023/04/08 02:25:47;;;;;;;16.10;12.40;;;;;;;9.77;68.49;99784.73;107327;1258;73777;-38
2023/04/08 02:28:17;;;;;;;14.10;12.60;;;;;;;9.72;68.50;99788.55;107354;1257;61377;-38
2023/04/08 02:30:48;;;;;;;13.00;11.20;;;;;;;9.67;68.79;99790.96;107337;1257;61571;-38
2023/04/08 02:33:20;;;;;;;13.60;11.30;;;;;;;9.72;68.96;99790.23;107178;1257;74262;-38
2023/04/08 02:35:53;;;;;;;12.90;11.50;;;;;;;9.79;68.85;99788.83;107269;1257;68793;-38
2023/04/08 02:38:28;;;;;;;14.30;12.00;;;;;;;9.79;68.80;99792.54;107211;1258;74121;-37
2023/04/08 02:40:57;;;;;;;12.70;11.40;;;;;;;9.80;68.75;99786.08;107302;1257;61448;-37
2023/04/08 02:43:31;;;;;;;13.50;11.90;;;;;;;9.82;68.80;99789.30;107380;1257;61583;-37
2023/04/08 02:46:09;;;;;;;14.10;12.40;;;;;;;9.75;68.72;99779.82;107299;1260;74153;-37
2023/04/08 02:48:38;;;;;;;14.10;11.90;;;;;;;9.79;69.04;99789.52;107188;1258;68917;-37
2023/04/08 02:51:07;;;;;;;15.20;12.90;;;;;;;9.79;69.03;99789.22;107295;1257;73850;-37
2023/04/08 02:53:38;;;;;;;12.20;10.50;;;;;;;9.75;69.10;99789.23;107278;1260;62933;-37
2023/04/08 02:56:10;;;;;;;12.40;10.70;;;;;;;9.76;69.18;99790.98;107209;1257;61545;-37
2023/04/08 02:58:39;;;;;;;12.50;11.20;;;;;;;9.79;69.14;99792.63;107331;1257;72006;-37
2023/04/08 03:01:07;;;;;;;13.00;11.40;;;;;;;9.78;69.25;99794.68;107347;1258;68878;-37
2023/04/08 03:03:38;;;;;;;13.60;11.90;;;;;;;9.76;69.34;99791.52;107299;1257;72435;-37
2023/04/08 03:06:07;;;;;;;13.40;11.70;;;;;;;9.73;69.49;99790.66;107304;1257;61703;-37
2023/04/08 03:08:35;;;;;;;13.00;11.40;;;;;;;9.73;69.80;99792.05;107308;1257;61358;-37
2023/04/08 03:11:05;;;;;;;12.80;11.40;;;;;;;9.75;69.83;99789.09;107207;1256;74145;-37
2023/04/08 03:13:34;;;;;;;11.40;10.20;;;;;;;9.73;69.70;99791.73;107240;1257;69232;-37
2023/04/08 03:16:03;;;;;;;12.20;9.70;;;;;;;9.75;69.56;99795.44;107307;1257;73848;-37
2023/04/08 03:18:32;;;;;;;12.30;11.00;;;;;;;9.72;69.74;99793.73;107361;1257;61686;-37
2023/04/08 03:21:02;;;;;;;14.00;12.50;;;;;;;9.66;70.27;99794.18;107334;1256;60990;-37
2023/04/08 03:23:32;;;;;;;13.50;11.60;;;;;;;9.64;70.55;99797.75;107236;1262;72465;-37
2023/04/08 03:26:00;;;;;;;14.70;12.30;;;;;;;9.59;70.69;99797.45;107294;1256;68484;-37
2023/04/08 03:28:29;;;;;;;14.10;12.60;;;;;;;9.55;70.98;99797.24;107259;1256;73912;-37
2023/04/08 03:30:59;;;;;;;13.10;11.00;;;;;;;9.49;71.42;99793.89;107284;1257;63429;-37
2023/04/08 03:33:29;;;;;;;12.30;11.00;;;;;;;9.50;71.56;99796.02;107340;1257;61246;-37
2023/04/08 03:35:58;;;;;;;13.80;10.90;;;;;;;9.54;71.86;99792.48;107322;1257;73226;-37
2023/04/08 03:38:26;;;;;;;12.00;10.60;;;;;;;9.54;71.91;99791.41;107353;1256;69159;-37
2023/04/08 03:40:55;;;;;;;12.90;11.50;;;;;;;9.51;72.02;99793.64;107323;1256;73901;-37
2023/04/08 03:43:26;;;;;;;13.00;11.70;;;;;;;9.52;72.38;99796.93;107326;1257;61267;-37
2023/04/08 03:45:55;;;;;;;16.30;13.60;;;;;;;9.51;72.31;99798.39;107304;1256;61227;-37
2023/04/08 03:48:24;;;;;;;12.70;11.20;;;;;;;9.51;72.48;99797.91;107361;1257;74539;-38
2023/04/08 03:50:52;;;;;;;11.50;10.10;;;;;;;9.56;72.36;99799.36;107362;1257;69142;-38
2023/04/08 03:53:21;;;;;;;14.20;10.90;;;;;;;9.57;72.42;99801.10;107358;1257;72923;-38
2023/04/08 03:55:51;;;;;;;12.70;11.20;;;;;;;9.60;72.60;99798.86;107316;1257;61623;-38
2023/04/08 03:58:20;;;;;;;13.30;11.30;;;;;;;9.61;72.76;99797.82;107378;1257;61568;-38
2023/04/08 04:00:49;;;;;;;14.40;11.90;;;;;;;9.60;72.84;99797.71;107381;1257;74210;-38
2023/04/08 04:03:18;;;;;;;13.60;11.70;;;;;;;9.61;72.88;99799.90;107645;1254;68822;-38
2023/04/08 04:05:52;;;;;;;13.20;10.60;;;;;;;9.58;72.93;99799.90;107561;1253;73780;-38
2023/04/08 04:08:21;;;;;;;12.60;11.10;;;;;;;9.62;73.01;99801.88;107584;1252;61476;-38
2023/04/08 04:10:50;;;;;;;12.20;10.90;;;;;;;9.65;73.17;99797.39;107605;1252;61538;-38
2023/04/08 04:13:19;;;;;;;14.80;11.90;;;;;;;9.65;73.30;99795.91;107668;1252;75023;-37
2023/04/08 04:15:48;;;;;;;14.00;12.50;;;;;;;9.61;73.33;99794.35;107634;1256;69126;-37
2023/04/08 04:18:17;;;;;;;16.90;13.60;;;;;;;9.60;73.64;99800.86;107699;1254;73870;-37
2023/04/08 04:20:46;;;;;;;13.00;10.90;;;;;;;9.58;73.66;99798.75;107556;1253;63196;-37
2023/04/08 04:23:15;;;;;;;12.90;10.40;;;;;;;9.63;73.59;99797.17;107604;1254;62079;-37
2023/04/08 04:25:44;;;;;;;14.60;12.30;;;;;;;9.69;73.51;99798.97;107646;1254;74266;-37
2023/04/08 04:28:16;;;;;;;13.70;12.20;;;;;;;9.70;73.60;99802.23;107681;1254;69094;-37
2023/04/08 04:30:47;;;;;;;16.60;12.30;;;;;;;9.69;73.66;99808.19;107663;1254;73826;-37
2023/04/08 04:33:16;;;;;;;15.00;12.90;;;;;;;9.67;73.76;99810.52;107673;1254;61661;-37
2023/04/08 04:35:46;;;;;;;12.10;10.70;;;;;;;9.62;73.89;99813.61;107667;1252;61330;-37
2023/04/08 04:38:15;;;;;;;11.40;10.20;;;;;;;9.58;73.74;99816.66;107698;1252;74861;-37
2023/04/08 04:40:46;;;;;;;15.10;12.00;;;;;;;9.56;74.12;99817.00;107726;1254;69148;-37
2023/04/08 04:43:16;;;;;;;13.60;12.20;;;;;;;9.55;74.43;99812.78;107659;1254;72992;-37
2023/04/08 04:45:46;;;;;;;14.40;12.90;;;;;;;9.51;74.54;99815.52;107699;1252;61568;-37
2023/04/08 04:48:15;;;;;;;11.20;8.70;;;;;;;9.46;74.93;99826.03;107681;1254;61542;-37
2023/04/08 04:50:44;;;;;;;11.10;9.70;;;;;;;9.44;75.36;99828.84;107589;1252;75061;-37
2023/04/08 04:53:17;;;;;;;12.80;11.40;;;;;;;9.52;75.52;99823.30;107533;1254;69093;-37
2023/04/08 04:55:47;;;;;;;;;;;;;;;9.59;75.66;99824.06;107642;1254;73973;-37
2023/04/08 04:58:17;;;;;;;13.70;11.80;;;;;;;9.58;75.93;99824.59;107680;1254;61582;-37
2023/04/08 05:00:45;;;;;;;14.10;12.10;;;;;;;9.60;76.18;99829.49;107752;1256;60268;-37
2023/04/08 05:03:15;;;;;;;;;;;;;;;9.66;76.02;99830.38;107681;1252;75741;-37
2023/04/08 05:05:51;;;;;;;13.10;10.90;;;;;;;9.74;75.99;99834.32;107682;1254;68829;-37
2023/04/08 05:08:21;;;;;;;12.50;11.20;;;;;;;9.83;75.97;99837.14;107684;1253;73813;-37
2023/04/08 05:10:50;;;;;;;13.60;11.60;;;;;;;9.91;75.90;99833.51;107756;1253;61706;-37
2023/04/08 05:13:27;;;;;;;39.30;23.60;;;;;;;9.95;75.67;99831.94;107691;1253;61521;-37
2023/04/08 05:16:00;;;;;;;30.90;21.60;;;;;;;9.92;75.75;99823.31;107660;1254;75035;-37
2023/04/08 05:18:29;;;;;;;18.00;14.50;;;;;;;10.00;75.68;99837.23;107684;1256;69533;-37
2023/04/08 05:21:03;;;;;;;20.40;14.80;;;;;;;10.08;75.60;99836.61;107614;1254;73731;-37
2023/04/08 05:23:34;;;;;;;16.50;14.20;;;;;;;10.17;75.45;99833.41;107725;1254;61682;-37
2023/04/08 05:26:02;;;;;;;17.30;15.40;;;;;;;10.23;75.64;99832.12;107699;1254;60299;-37
2023/04/08 05:28:42;;;;;;;20.80;18.20;;;;;;;10.27;75.76;99834.33;107649;1252;74994;-37
2023/04/08 05:31:10;;;;;;;17.30;14.70;;;;;;;10.31;75.74;99835.44;107660;1252;69240;-37
2023/04/08 05:33:39;;;;;;;16.40;11.20;;;;;;;10.35;75.59;99835.63;107695;1254;73629;-37
2023/04/08 05:36:10;;;;;;;17.10;11.50;;;;;;;10.45;75.66;99842.79;107654;1256;63071;-37
2023/04/08 05:38:39;;;;;;;13.90;11.50;;;;;;;10.56;75.69;99843.61;107723;1253;61190;-37
2023/04/08 05:41:09;;;;;;;13.10;11.60;;;;;;;10.63;75.67;99842.01;107662;1252;73826;-37
2023/04/08 05:43:37;;;;;;;17.30;13.10;;;;;;;10.69;75.74;99840.48;107585;1254;69145;-37
2023/04/08 05:46:07;;;;;;;18.00;12.80;;;;;;;10.76;75.65;99843.68;107541;1256;73876;-37
2023/04/08 05:48:35;;;;;;;13.60;10.80;;;;;;;10.79;75.62;99844.30;107675;1254;63368;-37
2023/04/08 05:51:05;;;;;;;12.50;10.00;;;;;;;10.88;75.51;99843.91;107652;1253;60521;-37
2023/04/08 05:53:35;;;;;;;13.30;10.80;;;;;;;10.98;75.53;99843.30;107714;1254;74532;-37
2023/04/08 05:56:04;;;;;;;13.90;10.60;;;;;;;11.03;75.59;99845.81;107687;1253;69131;-37
2023/04/08 05:58:34;;;;;;;15.50;10.20;;;;;;;11.05;75.22;99843.95;107694;1253;72832;-37
2023/04/08 06:01:02;;;;;;;12.90;10.50;;;;;;;11.02;75.36;99843.16;107758;1252;61612;-37
2023/04/08 06:03:32;;;;;;;13.30;9.90;;;;;;;11.00;75.53;99847.38;107730;1253;61010;-37
2023/04/08 06:06:01;;;;;;;16.90;11.00;;;;;;;11.05;75.48;99851.69;107688;1254;74807;-37
2023/04/08 06:08:29;;;;;;;12.10;10.20;;;;;;;11.07;75.56;99854.91;107701;1254;69175;-37
2023/04/08 06:11:02;;;;;;;18.80;12.00;;;;;;;11.01;75.67;99849.81;107672;1253;73910;-37
2023/04/08 06:13:36;;;;;;;16.60;11.30;;;;;;;10.99;75.70;99860.75;107601;1254;61232;-37
2023/04/08 06:16:12;;;;;;;11.20;9.50;;;;;;;10.94;76.25;99855.98;107786;1253;61500;-37
2023/04/08 06:18:46;;;;;;;15.40;10.50;;;;;;;10.99;76.42;99853.40;107685;1256;75068;-37
2023/04/08 06:21:16;;;;;;;13.30;10.00;;;;;;;11.05;76.38;99855.58;107682;1253;67647;-37
2023/04/08 06:23:44;;;;;;;14.60;10.60;;;;;;;11.08;76.25;99857.89;107669;1254;74166;-37
2023/04/08 06:26:13;;;;;;;13.10;10.50;;;;;;;11.02;76.31;99856.35;107697;1253;60435;-38
2023/04/08 06:28:42;;;;;;;13.20;10.70;;;;;;;10.99;76.89;99858.77;107724;1254;60476;-37
2023/04/08 06:31:13;;;;;;;15.60;9.40;;;;;;;11.07;77.22;99858.02;107583;1254;75373;-37
2023/04/08 06:33:42;;;;;;;14.50;9.40;;;;;;;11.21;77.25;99854.10;107537;1254;69013;-37
2023/04/08 06:36:12;;;;;;;12.50;9.50;;;;;;;11.32;76.83;99852.11;107570;1254;73913;-38
2023/04/08 06:38:41;;;;;;;14.20;9.70;;;;;;;11.35;76.79;99853.20;107662;1254;61773;-37
2023/04/08 06:41:09;;;;;;;14.90;10.10;;;;;;;11.43;77.09;99852.76;107755;1254;61300;-37
2023/04/08 06:43:38;;;;;;;13.00;9.00;;;;;;;11.49;76.87;99848.71;107717;1254;75250;-37
2023/04/08 06:46:06;;;;;;;13.40;9.20;;;;;;;11.60;76.62;99848.74;107715;1253;69188;-38
2023/04/08 06:48:36;;;;;;;13.70;9.60;;;;;;;11.75;76.21;99855.13;107688;1254;74044;-37
2023/04/08 06:51:06;;;;;;;13.20;10.40;;;;;;;11.83;75.86;99859.73;107746;1253;61572;-37
2023/04/08 06:53:36;;;;;;;16.40;10.20;;;;;;;11.84;75.67;99862.01;107760;1253;60141;-38
2023/04/08 06:56:04;;;;;;;13.10;9.80;;;;;;;11.80;75.63;99864.81;107664;1252;74699;-38
2023/04/08 06:58:34;;;;;;;15.80;9.40;;;;;;;11.78;75.72;99866.16;107677;1253;68934;-37
2023/04/08 07:01:03;;;;;;;12.90;9.40;;;;;;;11.86;75.70;99867.71;107715;1254;72730;-38
2023/04/08 07:03:32;;;;;;;13.10;9.90;;;;;;;11.90;75.73;99864.64;107731;1254;60858;-38
2023/04/08 07:06:03;;;;;;;13.10;10.30;;;;;;;11.93;76.06;99860.83;107736;1254;61181;-38
2023/04/08 07:08:31;;;;;;;15.20;11.10;;;;;;;12.03;76.48;99860.25;107746;1252;73428;-38
2023/04/08 07:11:04;;;;;;;16.50;10.20;;;;;;;12.15;76.43;99858.64;107658;1252;68121;-38
2023/04/08 07:13:33;;;;;;;16.20;10.70;;;;;;;12.23;75.48;99861.73;107704;1253;72855;-38
2023/04/08 07:16:01;;;;;;;15.10;10.90;;;;;;;12.25;75.80;99866.44;107705;1252;60568;-37
2023/04/08 07:18:32;;;;;;;14.00;11.50;;;;;;;12.28;75.65;99872.02;107699;1253;61251;-38
2023/04/08 07:21:01;;;;;;;14.70;10.70;;;;;;;12.22;75.39;99876.64;107703;1254;75496;-38
2023/04/08 07:23:31;;;;;;;14.10;10.50;;;;;;;12.17;75.68;99875.68;107646;1254;68917;-38
2023/04/08 07:26:05;;;;;;;16.90;11.00;;;;;;;12.27;76.16;99873.63;107559;1253;73855;-38
2023/04/08 07:28:34;;;;;;;17.60;11.10;;;;;;;12.41;76.26;99873.91;107564;1254;61306;-38
2023/04/08 07:31:10;;;;;;;19.40;11.20;;;;;;;12.47;75.84;99870.46;107692;1252;60280;-38
2023/04/08 07:33:38;;;;;;;18.90;11.30;;;;;;;12.54;76.11;99868.58;107716;1252;74149;-38
2023/04/08 07:36:10;;;;;;;16.10;10.40;;;;;;;12.60;75.73;99864.48;107611;1253;69236;-38
2023/04/08 07:38:39;;;;;;;16.20;10.20;;;;;;;12.80;75.47;99866.25;107576;1253;73876;-38
2023/04/08 07:41:10;;;;;;;17.00;10.70;;;;;;;12.99;74.55;99879.49;107582;1254;61260;-38
2023/04/08 07:43:39;;;;;;;15.70;10.50;;;;;;;13.04;74.01;99880.77;107739;1254;61621;-38
2023/04/08 07:46:08;;;;;;;17.10;10.80;;;;;;;13.06;73.52;99886.61;107678;1252;73161;-38
2023/04/08 07:48:37;;;;;;;18.00;11.20;;;;;;;13.05;73.82;99884.20;107775;1254;69159;-38
2023/04/08 07:51:07;;;;;;;15.30;9.40;;;;;;;13.08;73.90;99882.60;107645;1253;73878;-38
2023/04/08 07:53:41;;;;;;;19.10;9.80;;;;;;;13.17;73.62;99887.06;107573;1252;60658;-38
2023/04/08 07:56:11;;;;;;;20.10;10.30;;;;;;;13.26;73.47;99889.08;107632;1252;60300;-38
2023/04/08 07:58:40;;;;;;;21.50;11.50;;;;;;;13.32;73.10;99889.27;107659;1254;73822;-38
2023/04/08 08:01:20;;;;;;;18.10;10.90;;;;;;;13.38;73.17;99892.78;107665;1252;69147;-38
2023/04/08 08:03:51;;;;;;;17.60;9.60;;;;;;;13.47;73.11;99886.92;107730;1254;73894;-38
2023/04/08 08:06:21;;;;;;;17.50;10.30;;;;;;;13.66;72.94;99881.84;107694;1254;61815;-38
2023/04/08 08:08:51;;;;;;;16.80;10.60;;;;;;;13.87;72.85;99883.33;107711;1253;60530;-38
2023/04/08 08:11:21;;;;;;;16.90;10.10;;;;;;;14.08;71.33;99882.20;107718;1254;74734;-38
2023/04/08 08:13:52;;;;;;;15.80;10.10;;;;;;;14.26;70.42;99877.29;107708;1252;69223;-38
2023/04/08 08:16:27;;;;;;;15.70;10.10;;;;;;;14.39;70.29;99873.26;107706;1254;73868;-38
2023/04/08 08:18:57;;;;;;;12.50;7.80;;;;;;;14.47;69.85;99874.66;107726;1252;63009;-38
2023/04/08 08:21:32;;;;;;;14.30;8.70;;;;;;;14.67;69.03;99878.01;107667;1253;61298;-38
2023/04/08 08:24:00;;;;;;;18.80;9.10;;;;;;;14.80;67.48;99882.90;107645;1254;75014;-38
2023/04/08 08:26:30;;;;;;;15.40;9.00;;;;;;;14.81;67.09;99880.90;107734;1254;69097;-38
2023/04/08 08:29:01;;;;;;;16.80;9.50;;;;;;;14.83;67.65;99882.55;107689;1253;73876;-38
2023/04/08 08:31:30;;;;;;;15.40;9.90;;;;;;;14.96;67.71;99877.84;107687;1256;60588;-38
2023/04/08 08:33:58;;;;;;;16.00;9.40;;;;;;;15.10;67.21;99878.59;107674;1254;61571;-38
2023/04/08 08:36:27;;;;;;;15.10;9.00;;;;;;;15.23;65.65;99878.31;107736;1252;75056;-38
2023/04/08 08:38:56;;;;;;;14.30;9.30;;;;;;;15.35;65.41;99880.52;107717;1254;68649;-38
2023/04/08 08:41:24;;;;;;;20.20;8.60;;;;;;;15.44;65.11;99883.32;107611;1254;73859;-38
2023/04/08 08:43:53;;;;;;;14.70;8.20;;;;;;;15.46;64.07;99880.83;107581;1254;63363;-38
2023/04/08 08:46:21;;;;;;;13.60;8.70;;;;;;;15.42;64.43;99880.73;107467;1254;61528;-38
2023/04/08 08:48:50;;;;;;;18.40;9.70;;;;;;;15.45;64.27;99885.36;107575;1252;73524;-38
2023/04/08 08:51:18;;;;;;;18.70;9.50;;;;;;;15.48;63.74;99888.20;107570;1254;69142;-38
2023/04/08 08:53:49;;;;;;;17.80;9.20;;;;;;;15.48;63.17;99889.44;107558;1252;73503;-38
2023/04/08 08:56:18;;;;;;;13.90;9.00;;;;;;;15.47;63.38;99887.33;107690;1254;61606;-38
2023/04/08 08:58:47;;;;;;;16.90;8.60;;;;;;;15.52;63.28;99886.83;107683;1253;61532;-38
2023/04/08 09:01:49;;;;;;;19.70;9.70;;;;;;;15.56;62.55;99888.98;107704;1253;75028;-38
2023/04/08 09:04:21;;;;;;;16.40;9.30;;;;;;;15.59;62.48;99889.63;107356;1254;69128;-38
2023/04/08 09:07:09;;;;;;;19.90;10.30;;;;;;;15.63;62.48;99886.67;107687;1256;73653;-38
2023/04/08 09:09:50;;;;;;;15.60;8.90;;;;;;;15.67;61.70;99889.07;107417;1258;60634;-38
2023/04/08 09:12:19;;;;;;;15.20;8.60;;;;;;;15.69;61.96;99887.80;107540;1253;61559;-38
2023/04/08 09:14:49;;;;;;;;;;;;;;;15.62;61.69;99872.61;107705;1252;74115;-38
2023/04/08 09:17:38;;;;;;;16.80;8.70;;;;;;;15.53;61.28;99882.32;107679;1254;69471;-38
2023/04/08 09:20:13;;;;;;;21.10;9.20;;;;;;;15.39;61.75;99887.73;107651;1253;73859;-38
2023/04/08 09:22:59;;;;;;;16.80;9.60;;;;;;;15.39;61.73;99886.16;107734;1254;61551;-38
2023/04/08 09:25:30;;;;;;;16.60;10.40;;;;;;;15.50;61.60;99884.86;107703;1254;61337;-38
2023/04/08 09:28:01;;;;;;;22.80;10.60;;;;;;;15.67;61.73;99885.38;107675;1256;73012;-38
2023/04/08 09:30:31;;;;;;;17.50;9.90;;;;;;;15.85;61.36;99884.64;107671;1256;69109;-38
2023/04/08 09:33:06;;;;;;;18.30;9.60;;;;;;;16.05;61.51;99877.55;107684;1253;73006;-38
2023/04/08 09:35:35;;;;;;;15.40;9.40;;;;;;;16.32;61.31;99877.83;107709;1256;61555;-38
2023/04/08 09:38:04;;;;;;;15.60;9.10;;;;;;;16.56;60.37;99876.60;107755;1253;61546;-38
2023/04/08 09:40:35;;;;;;;13.70;8.70;;;;;;;16.74;59.80;99879.39;107756;1254;75007;-38
2023/04/08 09:43:04;;;;;;;19.30;9.60;;;;;;;16.85;58.20;99881.54;107532;1258;69396;-38
2023/04/08 09:45:33;;;;;;;15.00;7.80;;;;;;;16.83;57.97;99882.95;107720;1254;73574;-38
2023/04/08 09:48:06;;;;;;;18.00;9.30;;;;;;;16.84;58.15;99884.27;107673;1253;61389;-39
2023/04/08 09:50:37;;;;;;;15.20;8.10;;;;;;;16.91;58.23;99880.45;107594;1254;60542;-38
2023/04/08 09:53:18;;;;;;;12.20;7.50;;;;;;;17.08;57.07;99877.34;107521;1254;75596;-38
2023/04/08 09:55:50;;;;;;;14.80;8.90;;;;;;;17.18;57.56;99878.75;107530;1254;69742;-38
2023/04/08 09:58:26;;;;;;;18.50;8.80;;;;;;;17.28;57.92;99876.73;107611;1253;73850;-37
2023/04/08 10:00:57;;;;;;;16.60;8.50;;;;;;;17.38;57.49;99884.32;107521;1256;61478;-37
2023/04/08 10:03:31;;;;;;;14.60;8.00;;;;;;;17.48;57.33;99882.52;107630;1253;60456;-38
2023/04/08 10:06:05;;;;;;;15.60;7.80;;;;;;;17.55;57.16;99885.16;107607;1253;75049;-37
2023/04/08 10:08:34;;;;;;;;;;;;;;;17.62;56.66;99884.48;107553;1254;67948;-37
2023/04/08 10:11:02;;;;;;;18.60;8.80;;;;;;;17.64;55.96;99884.95;107683;1253;72059;-37
2023/04/08 10:13:34;;;;;;;20.70;8.60;;;;;;;17.59;55.81;99885.90;107719;1252;61313;-37
2023/04/08 10:16:24;;;;;;;18.30;8.50;;;;;;;17.57;54.73;99884.92;107594;1252;61172;-37
2023/04/08 10:18:56;;;;;;;19.10;8.70;;;;;;;17.53;54.72;99882.27;107744;1252;75097;-38
2023/04/08 10:21:34;;;;;;;15.20;7.60;;;;;;;17.48;54.70;99884.55;107696;1256;69114;-38
2023/04/08 10:24:06;;;;;;;17.90;6.90;;;;;;;17.48;55.01;99883.20;107701;1252;72880;-38
2023/04/08 10:26:36;;;;;;;16.30;7.80;;;;;;;17.58;54.18;99881.19;107527;1253;60598;-38
2023/04/08 10:29:17;;;;;;;12.70;7.40;;;;;;;17.65;53.93;99881.51;107654;1254;62003;-38
2023/04/08 10:31:47;;;;;;;16.10;8.10;;;;;;;17.61;53.89;99880.56;107645;1254;74960;-38
2023/04/08 10:34:21;;;;;;;15.20;7.40;;;;;;;17.53;53.76;99884.30;107728;1256;68774;-38
2023/04/08 10:36:50;;;;;;;14.30;6.90;;;;;;;17.54;53.73;99880.40;107759;1254;72990;-38
2023/04/08 10:39:20;;;;;;;12.80;7.00;;;;;;;17.59;54.04;99880.41;107554;1252;61167;-38
2023/04/08 10:41:49;;;;;;;15.50;7.40;;;;;;;17.66;53.78;99878.85;107643;1254;61059;-38
2023/04/08 10:44:19;;;;;;;16.10;7.80;;;;;;;17.75;53.21;99872.40;107626;1256;75064;-38
2023/04/08 10:46:49;;;;;;;13.50;6.80;;;;;;;17.74;52.72;99873.88;107572;1253;68969;-38
2023/04/08 10:49:17;;;;;;;15.10;6.90;;;;;;;17.73;52.42;99872.16;107669;1253;73937;-38
2023/04/08 10:51:47;;;;;;;15.50;7.10;;;;;;;17.77;52.59;99871.06;107661;1254;61363;-38
2023/04/08 10:54:17;;;;;;;19.50;6.90;;;;;;;17.85;52.39;99868.39;107592;1254;61807;-38
2023/04/08 10:56:48;;;;;;;15.70;7.40;;;;;;;17.93;51.99;99865.23;107582;1253;75062;-38
2023/04/08 10:59:30;;;;;;;14.50;6.80;;;;;;;17.94;51.82;99862.09;107695;1254;67483;-38
2023/04/08 11:02:00;;;;;;;21.70;7.60;;;;;;;17.90;51.54;99860.55;107689;1252;72416;-39
2023/04/08 11:04:29;;;;;;;15.90;6.60;;;;;;;17.88;51.77;99854.27;107671;1254;61554;-38
2023/04/08 11:06:58;;;;;;;13.20;7.20;;;;;;;17.85;51.37;99851.85;107720;1254;61210;-38
2023/04/08 11:09:27;;;;;;;14.60;7.70;;;;;;;17.82;51.39;99844.64;107747;1254;74763;-38
2023/04/08 11:11:55;;;;;;;14.60;7.20;;;;;;;17.93;51.12;99840.92;107672;1253;69179;-38
2023/04/08 11:14:26;;;;;;;14.50;7.00;;;;;;;18.15;51.24;99840.98;107496;1254;73881;-37
2023/04/08 11:16:55;;;;;;;14.40;6.30;;;;;;;18.51;50.94;99838.88;107472;1252;61717;-39
2023/04/08 11:19:24;;;;;;;14.40;6.40;;;;;;;18.83;49.84;99834.63;107498;1253;60738;-38
2023/04/08 11:21:52;;;;;;;13.20;7.10;;;;;;;18.98;49.04;99833.89;107729;1252;75040;-38
2023/04/08 11:24:21;;;;;;;13.40;6.60;;;;;;;18.90;48.34;99829.63;107686;1254;68982;-38
2023/04/08 11:26:54;;;;;;;21.00;7.40;;;;;;;18.79;48.63;99837.70;107568;1254;74100;-39
2023/04/08 11:29:22;;;;;;;13.40;6.70;;;;;;;18.67;48.61;99832.21;107411;1252;61576;-38
2023/04/08 11:31:52;;;;;;;16.50;6.90;;;;;;;18.63;48.61;99836.46;107655;1252;61502;-38
2023/04/08 11:34:23;;;;;;;19.40;9.30;;;;;;;18.61;49.59;99840.17;107549;1252;75252;-36